createdAt,value
2022-10-02T00:00:09.206Z,100.00
2022-10-02T00:02:46.105Z,100.00
2022-10-02T00:05:32.462Z,100.00
2022-10-02T00:08:24.243Z,100.00
2022-10-02T00:11:00.836Z,100.00
2022-10-02T00:13:44.076Z,100.00
2022-10-02T00:16:32.811Z,100.00
2022-10-02T00:19:02.089Z,100.00
2022-10-02T00:22:05.961Z,100.00
2022-10-02T00:24:44.325Z,100.00
2022-10-02T00:27:39.726Z,100.00
2022-10-02T00:30:16.026Z,100.00
2022-10-02T00:33:13.145Z,100.00
2022-10-02T00:36:17.476Z,100.00
2022-10-02T00:39:03.025Z,100.00
2022-10-02T00:42:22.788Z,100.00
2022-10-02T00:45:41.530Z,100.00
2022-10-02T00:48:36.904Z,100.00
2022-10-02T00:51:19.061Z,100.00
2022-10-02T00:54:04.686Z,100.00
2022-10-02T00:56:48.004Z,100.00
2022-10-02T01:00:00.999Z,100.00
2022-10-02T01:03:04.648Z,100.00
2022-10-02T01:05:37.027Z,100.00
2022-10-02T01:08:11.493Z,100.00
2022-10-02T01:10:41.414Z,100.00
2022-10-02T01:13:10.353Z,100.00
2022-10-02T01:15:52.902Z,100.00
2022-10-02T01:18:23.391Z,100.00
2022-10-02T01:21:09.132Z,100.00
2022-10-02T01:23:56.462Z,100.00
2022-10-02T01:26:28.757Z,100.00
2022-10-02T01:28:57.327Z,100.00
2022-10-02T01:31:26.512Z,100.00
2022-10-02T01:33:59.993Z,100.00
2022-10-02T01:36:36.305Z,100.00
2022-10-02T01:39:08.340Z,100.00
2022-10-02T01:41:45.724Z,100.00
2022-10-02T01:44:16.907Z,100.00
2022-10-02T01:47:04.468Z,100.00
2022-10-02T01:49:55.978Z,100.00
2022-10-02T01:52:51.966Z,100.00
2022-10-02T01:55:42.229Z,100.00
2022-10-02T01:58:30.499Z,100.00
2022-10-02T02:01:17.407Z,100.00
2022-10-02T02:03:59.344Z,100.00
2022-10-02T02:06:34.375Z,100.00
2022-10-02T02:09:15.123Z,100.00
2022-10-02T02:11:57.470Z,100.00
2022-10-02T02:14:51.735Z,100.00
2022-10-02T02:17:37.331Z,100.00
2022-10-02T02:20:16.500Z,100.00
2022-10-02T02:22:57.993Z,100.00
2022-10-02T02:25:31.391Z,100.00
2022-10-02T02:28:06.206Z,100.00
2022-10-02T02:30:41.269Z,100.00
2022-10-02T02:33:19.628Z,100.00
2022-10-02T02:35:56.207Z,100.00
2022-10-02T02:38:35.714Z,100.00
2022-10-02T02:41:14.232Z,100.00
2022-10-02T02:43:53.252Z,100.00
2022-10-02T02:46:57.273Z,100.00
2022-10-02T02:49:38.280Z,100.00
2022-10-02T02:52:17.956Z,100.00
2022-10-02T02:55:17.997Z,100.00
2022-10-02T02:57:55.754Z,100.00
2022-10-02T03:00:25.986Z,100.00
2022-10-02T03:02:57.704Z,100.00
2022-10-02T03:05:29.749Z,100.00
2022-10-02T03:08:16.534Z,100.00
2022-10-02T03:11:07.562Z,100.00
2022-10-02T03:13:58.174Z,100.00
2022-10-02T03:16:45.908Z,100.00
2022-10-02T03:19:41.152Z,100.00
2022-10-02T03:22:29.462Z,100.00
2022-10-02T03:25:07.077Z,100.00
2022-10-02T03:27:44.020Z,100.00
2022-10-02T03:30:24.405Z,100.00
2022-10-02T03:32:56.322Z,100.00
2022-10-02T03:35:33.364Z,100.00
2022-10-02T03:38:10.947Z,100.00
2022-10-02T03:40:39.507Z,100.00
2022-10-02T03:43:17.416Z,100.00
2022-10-02T03:45:51.316Z,100.00
2022-10-02T03:48:20.288Z,100.00
2022-10-02T03:50:51.794Z,100.00
2022-10-02T03:53:37.566Z,100.00
2022-10-02T03:56:14.691Z,100.00
2022-10-02T03:58:49.770Z,100.00
2022-10-02T04:01:26.813Z,100.00
2022-10-02T04:04:07.540Z,100.00
2022-10-02T04:06:47.402Z,100.00
2022-10-02T04:09:35.001Z,100.00
2022-10-02T04:12:17.753Z,100.00
2022-10-02T04:15:15.141Z,100.00
2022-10-02T04:17:58.740Z,100.00
2022-10-02T04:20:51.025Z,100.00
2022-10-02T04:23:27.477Z,100.00
2022-10-02T04:26:08.395Z,100.00
2022-10-02T04:29:01.182Z,100.00
2022-10-02T04:31:32.334Z,100.00
2022-10-02T04:34:17.512Z,100.00
2022-10-02T04:37:09.516Z,100.00
2022-10-02T04:40:10.416Z,100.00
2022-10-02T04:43:06.370Z,100.00
2022-10-02T04:46:02.973Z,100.00
2022-10-02T04:49:06.751Z,100.00
2022-10-02T04:51:58.785Z,100.00
2022-10-02T04:55:21.110Z,100.00
2022-10-02T04:58:35.302Z,100.00
2022-10-02T05:01:31.532Z,100.00
2022-10-02T05:04:43.839Z,100.00
2022-10-02T05:08:07.049Z,100.00
2022-10-02T05:11:10.495Z,100.00
2022-10-02T05:14:10.183Z,100.00
2022-10-02T05:17:02.797Z,100.00
2022-10-02T05:19:57.549Z,100.00
2022-10-02T05:23:18.151Z,100.00
2022-10-02T05:26:28.407Z,100.00
2022-10-02T05:29:20.849Z,100.00
2022-10-02T05:32:20.320Z,100.00
2022-10-02T05:35:26.475Z,100.00
2022-10-02T05:38:13.714Z,100.00
2022-10-02T05:41:04.348Z,100.00
2022-10-02T05:43:46.919Z,100.00
2022-10-02T05:46:28.390Z,100.00
2022-10-02T05:49:01.047Z,100.00
2022-10-02T05:51:50.356Z,100.00
2022-10-02T05:54:42.659Z,100.00
2022-10-02T05:57:24.766Z,100.00
2022-10-02T06:00:16.972Z,100.00
2022-10-02T06:03:01.300Z,100.00
2022-10-02T06:05:45.026Z,100.00
2022-10-02T06:08:21.099Z,100.00
2022-10-02T06:10:55.959Z,100.00
2022-10-02T06:13:33.265Z,100.00
2022-10-02T06:16:14.385Z,100.00
2022-10-02T06:18:50.301Z,100.00
2022-10-02T06:21:31.693Z,100.00
2022-10-02T06:24:05.740Z,100.00
2022-10-02T06:26:46.501Z,100.00
2022-10-02T06:29:27.295Z,100.00
2022-10-02T06:32:11.025Z,100.00
2022-10-02T06:34:39.516Z,100.00
2022-10-02T06:37:29.344Z,100.00
2022-10-02T06:40:21.006Z,100.00
2022-10-02T06:43:01.616Z,100.00
2022-10-02T06:45:46.507Z,100.00
2022-10-02T06:48:30.751Z,100.00
2022-10-02T06:51:11.516Z,100.00
2022-10-02T06:54:01.667Z,100.00
2022-10-02T06:56:46.762Z,100.00
2022-10-02T06:59:36.879Z,100.00
2022-10-02T07:02:25.153Z,100.00
2022-10-02T07:05:49.668Z,100.00
2022-10-02T07:08:36.392Z,100.00
2022-10-02T07:11:16.870Z,100.00
2022-10-02T07:14:08.009Z,100.00
2022-10-02T07:17:00.265Z,100.00
2022-10-02T07:20:02.541Z,100.00
2022-10-02T07:23:01.738Z,100.00
2022-10-02T07:25:50.863Z,100.00
2022-10-02T07:28:29.240Z,100.00
2022-10-02T07:31:05.790Z,100.00
2022-10-02T07:33:58.214Z,100.00
2022-10-02T07:36:45.884Z,100.00
2022-10-02T07:39:36.622Z,100.00
2022-10-02T07:42:33.856Z,100.00
2022-10-02T07:45:30.785Z,100.00
2022-10-02T07:48:34.807Z,100.00
2022-10-02T07:51:48.159Z,100.00
2022-10-02T07:54:48.570Z,100.00
2022-10-02T07:57:31.629Z,100.00
2022-10-02T08:00:07.893Z,100.00
2022-10-02T08:02:51.341Z,100.00
2022-10-02T08:05:25.706Z,100.00
2022-10-02T08:08:00.301Z,100.00
2022-10-02T08:10:38.822Z,100.00
2022-10-02T08:13:16.259Z,100.00
2022-10-02T08:15:49.409Z,100.00
2022-10-02T08:18:34.634Z,100.00
2022-10-02T08:21:09.817Z,100.00
2022-10-02T08:23:48.545Z,100.00
2022-10-02T08:26:27.208Z,100.00
2022-10-02T08:29:07.163Z,100.00
2022-10-02T08:31:35.859Z,100.00
2022-10-02T08:34:21.029Z,100.00
2022-10-02T08:37:51.976Z,100.00
2022-10-02T08:41:24.432Z,100.00
2022-10-02T08:44:52.742Z,100.00
2022-10-02T08:48:06.395Z,100.00
2022-10-02T08:51:33.342Z,100.00
2022-10-02T08:55:22.813Z,100.00
2022-10-02T08:58:47.616Z,100.00
2022-10-02T09:01:59.717Z,100.00
2022-10-02T09:05:39.685Z,96.44
2022-10-02T09:09:10.288Z,98.85
2022-10-02T09:12:23.514Z,96.23
2022-10-02T09:14:58.620Z,94.38
2022-10-02T09:18:16.848Z,92.15
2022-10-02T09:21:16.608Z,91.56
2022-10-02T09:24:46.722Z,93.73
2022-10-02T09:28:18.120Z,92.59
2022-10-02T09:31:41.165Z,89.94
2022-10-02T09:35:16.204Z,89.84
2022-10-02T09:38:44.880Z,88.55
2022-10-02T09:41:59.246Z,89.89
2022-10-02T09:45:22.517Z,88.53
2022-10-02T09:48:48.960Z,86.44
2022-10-02T09:52:05.001Z,86.04
2022-10-02T09:55:22.186Z,87.29
2022-10-02T09:58:37.719Z,84.65
2022-10-02T10:01:50.988Z,83.45
2022-10-02T10:05:13.181Z,82.43
2022-10-02T10:08:31.906Z,82.17
2022-10-02T10:11:39.329Z,84.51
2022-10-02T10:14:41.559Z,86.34
2022-10-02T10:18:17.201Z,86.61
2022-10-02T10:21:42.795Z,85.05
2022-10-02T10:25:13.374Z,84.18
2022-10-02T10:28:25.600Z,84.16
2022-10-02T10:31:51.172Z,84.44
2022-10-02T10:35:50.044Z,85.49
2022-10-02T10:38:53.635Z,82.59
2022-10-02T10:42:18.182Z,81.60
2022-10-02T10:45:38.186Z,83.47
2022-10-02T10:48:36.381Z,82.09
2022-10-02T10:51:36.314Z,80.06
2022-10-02T10:54:48.717Z,77.51
2022-10-02T10:57:42.382Z,76.22
2022-10-02T11:00:21.237Z,78.00
2022-10-02T11:03:34.060Z,79.23
2022-10-02T11:06:58.514Z,78.94
2022-10-02T11:10:05.282Z,81.53
2022-10-02T11:13:14.277Z,82.41
2022-10-02T11:16:37.685Z,81.77
2022-10-02T11:19:43.452Z,82.27
2022-10-02T11:22:56.285Z,82.45
2022-10-02T11:25:49.025Z,83.99
2022-10-02T11:29:02.644Z,82.29
2022-10-02T11:31:59.063Z,79.42
2022-10-02T11:35:06.792Z,76.07
2022-10-02T11:38:24.028Z,72.42
2022-10-02T11:51:24.576Z,77.43
2022-10-02T11:54:22.258Z,80.78
2022-10-02T11:57:24.187Z,91.01
2022-10-02T12:00:16.236Z,91.35
2022-10-02T12:03:03.515Z,100.00
2022-10-02T12:06:02.972Z,100.00
2022-10-02T12:09:20.048Z,100.00
2022-10-02T12:12:17.145Z,100.00
2022-10-02T12:20:07.011Z,100.00
2022-10-02T12:23:37.115Z,100.00
2022-10-02T12:27:09.857Z,100.00
2022-10-02T12:30:04.330Z,100.00
2022-10-02T12:33:20.730Z,100.00
2022-10-02T12:36:26.964Z,100.00
2022-10-02T12:39:28.499Z,100.00
2022-10-02T12:43:13.195Z,100.00
2022-10-02T12:46:25.679Z,97.22
2022-10-02T12:49:45.737Z,94.30
2022-10-02T12:53:09.242Z,94.56
2022-10-02T12:56:37.166Z,96.47
2022-10-02T12:59:18.526Z,99.16
2022-10-02T13:02:49.284Z,100.00
2022-10-02T13:06:14.926Z,100.00
2022-10-02T13:09:13.731Z,100.00
2022-10-02T13:12:06.513Z,100.00
2022-10-02T13:15:12.022Z,100.00
2022-10-02T13:17:53.331Z,100.00
2022-10-02T13:20:39.149Z,100.00
2022-10-02T13:23:26.100Z,100.00
2022-10-02T13:26:12.772Z,100.00
2022-10-02T13:29:20.184Z,100.00
2022-10-02T13:32:17.153Z,100.00
2022-10-02T13:35:07.273Z,100.00
2022-10-02T13:37:58.627Z,97.89
2022-10-02T13:40:36.295Z,97.06
2022-10-02T13:43:34.654Z,95.94
2022-10-02T13:46:22.765Z,94.77
2022-10-02T13:49:10.090Z,90.71
2022-10-02T13:51:59.741Z,89.99
2022-10-02T13:55:04.859Z,84.55
2022-10-02T13:57:54.014Z,79.40
2022-10-02T14:01:13.235Z,78.12
2022-10-02T14:04:38.863Z,81.27
2022-10-02T14:07:29.104Z,79.78
2022-10-02T14:10:11.114Z,83.69
2022-10-02T14:12:55.270Z,84.27
2022-10-02T14:15:42.754Z,86.91
2022-10-02T14:18:42.793Z,90.34
2022-10-02T14:21:31.144Z,91.61
2022-10-02T14:24:51.384Z,92.83
2022-10-02T14:28:19.836Z,94.08
2022-10-02T14:31:13.099Z,95.66
2022-10-02T14:34:16.146Z,97.37
2022-10-02T14:37:17.972Z,97.07
2022-10-02T14:39:53.260Z,96.50
2022-10-02T14:42:57.594Z,97.62
2022-10-02T14:46:04.442Z,97.22
2022-10-02T14:49:15.003Z,94.44
2022-10-02T14:52:25.807Z,94.25
2022-10-02T14:55:34.422Z,94.65
2022-10-02T14:58:40.211Z,95.25
2022-10-02T15:01:22.609Z,92.68
2022-10-02T15:04:25.133Z,90.87
2022-10-02T15:07:11.624Z,89.46
2022-10-02T15:09:59.149Z,89.92
2022-10-02T15:12:45.509Z,90.37
2022-10-02T15:15:22.210Z,90.77
2022-10-02T15:18:20.267Z,92.05
2022-10-02T15:21:06.674Z,95.14
2022-10-02T15:23:46.421Z,100.00
2022-10-02T15:26:37.807Z,100.00
2022-10-02T15:29:27.005Z,100.00
2022-10-02T15:32:43.121Z,100.00
2022-10-02T15:35:28.703Z,100.00
2022-10-02T15:38:34.640Z,100.00
2022-10-02T15:41:40.160Z,100.00
2022-10-02T15:44:39.478Z,100.00
2022-10-02T15:47:35.834Z,100.00
2022-10-02T15:50:26.260Z,100.00
2022-10-02T15:57:49.001Z,100.00
2022-10-02T16:00:20.452Z,100.00
2022-10-02T16:03:17.153Z,100.00
2022-10-02T16:05:55.345Z,100.00
2022-10-02T16:09:05.858Z,100.00
2022-10-02T16:12:18.658Z,100.00
2022-10-02T16:15:01.388Z,100.00
2022-10-02T16:18:08.598Z,100.00
2022-10-02T16:21:08.066Z,100.00
2022-10-02T16:24:31.038Z,100.00
2022-10-02T16:27:46.304Z,100.00
2022-10-02T16:30:17.324Z,100.00
2022-10-02T16:33:17.153Z,100.00
2022-10-02T16:36:41.347Z,100.00
2022-10-02T16:39:51.957Z,100.00
2022-10-02T16:42:42.613Z,100.00
2022-10-02T16:45:42.938Z,100.00
2022-10-02T16:48:18.219Z,100.00
2022-10-02T16:51:11.549Z,100.00
2022-10-02T16:53:51.188Z,100.00
2022-10-02T16:56:32.237Z,100.00
2022-10-02T16:59:12.885Z,100.00
2022-10-02T17:02:15.957Z,100.00
2022-10-02T17:04:52.291Z,100.00
2022-10-02T17:07:37.241Z,100.00
2022-10-02T17:10:23.680Z,100.00
2022-10-02T17:13:07.133Z,100.00
2022-10-02T17:15:46.385Z,100.00
2022-10-02T17:18:35.437Z,100.00
2022-10-02T17:21:16.035Z,100.00
2022-10-02T17:24:00.576Z,100.00
2022-10-02T17:26:37.770Z,100.00
2022-10-02T17:29:20.289Z,100.00
2022-10-02T17:31:54.180Z,100.00
2022-10-02T17:34:26.567Z,100.00
2022-10-02T17:37:07.816Z,100.00
2022-10-02T17:40:05.095Z,100.00
2022-10-02T17:42:50.179Z,100.00
2022-10-02T17:45:37.530Z,100.00
2022-10-02T17:48:39.828Z,100.00
2022-10-02T17:51:51.159Z,100.00
2022-10-02T17:55:14.046Z,100.00
2022-10-02T17:58:08.111Z,100.00
2022-10-02T18:00:53.003Z,100.00
2022-10-02T18:03:48.100Z,100.00
2022-10-02T18:06:32.454Z,100.00
2022-10-02T18:09:46.050Z,100.00
2022-10-02T18:13:04.039Z,100.00
2022-10-02T18:15:56.723Z,100.00
2022-10-02T18:18:38.950Z,100.00
2022-10-02T18:21:32.949Z,100.00
2022-10-02T18:24:32.933Z,100.00
2022-10-02T18:27:37.048Z,100.00
2022-10-02T18:30:17.343Z,100.00
2022-10-02T18:33:27.013Z,100.00
2022-10-02T18:36:19.907Z,100.00
2022-10-02T18:39:01.364Z,100.00
2022-10-02T18:41:55.606Z,100.00
2022-10-02T18:44:58.763Z,100.00
2022-10-02T18:47:45.481Z,100.00
2022-10-02T18:50:48.971Z,100.00
2022-10-02T18:53:46.069Z,100.00
2022-10-02T18:56:22.212Z,100.00
2022-10-02T18:59:13.815Z,100.00
2022-10-02T19:02:03.141Z,100.00
2022-10-02T19:05:10.419Z,100.00
2022-10-02T19:07:47.713Z,100.00
2022-10-02T19:10:44.966Z,100.00
2022-10-02T19:13:22.289Z,100.00
2022-10-02T19:15:53.475Z,100.00
2022-10-02T19:18:27.310Z,100.00
2022-10-02T19:21:03.150Z,100.00
2022-10-02T19:23:40.357Z,100.00
2022-10-02T19:26:20.141Z,100.00
2022-10-02T19:29:07.076Z,100.00
2022-10-02T19:31:52.860Z,100.00
2022-10-02T19:34:27.749Z,100.00
2022-10-02T19:37:05.927Z,100.00
2022-10-02T19:39:41.498Z,100.00
2022-10-02T19:42:18.021Z,100.00
2022-10-02T19:44:53.249Z,100.00
2022-10-02T19:47:30.002Z,100.00
2022-10-02T19:50:02.877Z,100.00
2022-10-02T19:52:44.111Z,100.00
2022-10-02T19:55:24.961Z,100.00
2022-10-02T19:57:58.240Z,100.00
2022-10-02T20:00:27.116Z,100.00
2022-10-02T20:03:01.116Z,100.00
2022-10-02T20:05:34.912Z,100.00
2022-10-02T20:08:14.428Z,100.00
2022-10-02T20:10:58.071Z,100.00
2022-10-02T20:13:37.321Z,100.00
2022-10-02T20:16:35.702Z,100.00
2022-10-02T20:19:05.638Z,100.00
2022-10-02T20:21:41.310Z,100.00
2022-10-02T20:24:21.188Z,100.00
2022-10-02T20:26:56.753Z,100.00
2022-10-02T20:29:34.364Z,100.00
2022-10-02T20:32:09.496Z,100.00
2022-10-02T20:34:44.979Z,100.00
2022-10-02T20:37:19.922Z,100.00
2022-10-02T20:39:58.856Z,100.00
2022-10-02T20:42:41.824Z,100.00
2022-10-02T20:45:14.708Z,100.00
2022-10-02T20:48:56.043Z,100.00
2022-10-02T20:52:08.135Z,100.00
2022-10-02T20:54:59.261Z,100.00
2022-10-02T20:58:34.013Z,100.00
2022-10-02T21:01:19.914Z,100.00
2022-10-02T21:04:27.532Z,100.00
2022-10-02T21:07:37.592Z,100.00
2022-10-02T21:10:48.981Z,100.00
2022-10-02T21:14:09.310Z,100.00
2022-10-02T21:17:15.077Z,100.00
2022-10-02T21:20:52.506Z,100.00
2022-10-02T21:24:25.634Z,100.00
2022-10-02T21:27:47.927Z,100.00
2022-10-02T21:30:19.890Z,100.00
2022-10-02T21:33:12.795Z,100.00
2022-10-02T21:35:55.211Z,100.00
2022-10-02T21:39:03.900Z,100.00
2022-10-02T21:42:08.846Z,100.00
2022-10-02T21:45:58.477Z,100.00
2022-10-02T21:49:10.065Z,100.00
2022-10-02T21:52:26.380Z,100.00
2022-10-02T21:55:52.755Z,100.00
2022-10-02T21:59:09.037Z,100.00
2022-10-02T22:02:22.494Z,100.00
2022-10-02T22:05:36.037Z,100.00
2022-10-02T22:08:21.125Z,100.00
2022-10-02T22:11:02.884Z,100.00
2022-10-02T22:13:38.603Z,100.00
2022-10-02T22:16:26.185Z,100.00
2022-10-02T22:19:03.706Z,100.00
2022-10-02T22:22:04.087Z,100.00
2022-10-02T22:24:55.728Z,100.00
2022-10-02T22:27:49.168Z,100.00
2022-10-02T22:30:26.673Z,100.00
2022-10-02T22:33:14.699Z,100.00
2022-10-02T22:36:14.190Z,100.00
2022-10-02T22:38:51.818Z,100.00
2022-10-02T22:41:29.407Z,100.00
2022-10-02T22:44:06.276Z,100.00
2022-10-02T22:46:47.855Z,100.00
2022-10-02T22:49:27.186Z,100.00
2022-10-02T22:52:07.942Z,100.00
2022-10-02T22:54:47.749Z,100.00
2022-10-02T22:57:30.391Z,100.00
2022-10-02T23:00:12.206Z,100.00
2022-10-02T23:02:51.587Z,100.00
2022-10-02T23:05:31.443Z,100.00
2022-10-02T23:08:15.020Z,100.00
2022-10-02T23:10:50.983Z,100.00
2022-10-02T23:13:30.609Z,100.00
2022-10-02T23:16:06.084Z,100.00
2022-10-02T23:18:43.620Z,100.00
2022-10-02T23:21:33.006Z,100.00
2022-10-02T23:24:19.506Z,100.00
2022-10-02T23:26:53.986Z,100.00
2022-10-02T23:29:39.466Z,100.00
2022-10-02T23:32:25.018Z,100.00
2022-10-02T23:35:04.248Z,100.00
2022-10-02T23:37:46.224Z,100.00
2022-10-02T23:40:46.809Z,100.00
2022-10-02T23:43:26.041Z,100.00
2022-10-02T23:46:05.246Z,100.00
2022-10-02T23:48:34.216Z,100.00
2022-10-02T23:51:18.217Z,100.00
2022-10-02T23:54:05.958Z,100.00
2022-10-02T23:57:18.458Z,100.00
